sensor_id;sensor_type;location;lat;lon;timestamp;pressure;altitude;pressure_sealevel;temperature;humidity
64253;BME280;50592;52.958;-7.470;2023-01-09T00:01:27;97827.50;;;4.80;100.00
64253;BME280;50592;52.958;-7.470;2023-01-09T00:03:53;97821.78;;;4.76;100.00
64253;BME280;50592;52.958;-7.470;2023-01-09T00:06:19;97830.63;;;4.75;100.00
64253;BME280;50592;52.958;-7.470;2023-01-09T00:08:48;97837.34;;;4.78;100.00
64253;BME280;50592;52.958;-7.470;2023-01-09T00:11:14;97828.84;;;4.76;100.00
64253;BME280;50592;52.958;-7.470;2023-01-09T00:13:40;97827.03;;;4.76;100.00
64253;BME280;50592;52.958;-7.470;2023-01-09T00:16:12;97830.63;;;4.75;100.00
64253;BME280;50592;52.958;-7.470;2023-01-09T00:18:40;97837.03;;;4.72;100.00
64253;BME280;50592;52.958;-7.470;2023-01-09T00:21:08;97844.06;;;4.72;100.00
64253;BME280;50592;52.958;-7.470;2023-01-09T00:23:38;97851.25;;;4.70;100.00
64253;BME280;50592;52.958;-7.470;2023-01-09T00:26:09;97861.38;;;4.73;100.00
64253;BME280;50592;52.958;-7.470;2023-01-09T00:28:39;97848.66;;;4.70;100.00
64253;BME280;50592;52.958;-7.470;2023-01-09T00:31:06;97863.72;;;4.68;100.00
64253;BME280;50592;52.958;-7.470;2023-01-09T00:33:40;97864.34;;;4.70;100.00
64253;BME280;50592;52.958;-7.470;2023-01-09T00:36:08;97870.75;;;4.67;100.00
64253;BME280;50592;52.958;-7.470;2023-01-09T00:38:34;97857.84;;;4.66;100.00
64253;BME280;50592;52.958;-7.470;2023-01-09T00:41:06;97874.81;;;4.70;100.00
64253;BME280;50592;52.958;-7.470;2023-01-09T00:43:38;97886.44;;;4.67;100.00
64253;BME280;50592;52.958;-7.470;2023-01-09T00:46:05;97879.59;;;4.66;100.00
64253;BME280;50592;52.958;-7.470;2023-01-09T00:48:36;97875.16;;;4.67;100.00
64253;BME280;50592;52.958;-7.470;2023-01-09T00:51:04;97870.75;;;4.67;100.00
64253;BME280;50592;52.958;-7.470;2023-01-09T00:53:33;97879.88;;;4.71;100.00
64253;BME280;50592;52.958;-7.470;2023-01-09T00:56:05;97881.03;;;4.69;100.00
64253;BME280;50592;52.958;-7.470;2023-01-09T00:58:34;97883.84;;;4.67;100.00
64253;BME280;50592;52.958;-7.470;2023-01-09T01:01:00;97894.47;;;4.66;100.00
64253;BME280;50592;52.958;-7.470;2023-01-09T01:03:28;97908.22;;;4.68;100.00
64253;BME280;50592;52.958;-7.470;2023-01-09T01:05:53;97907.56;;;4.66;100.00
64253;BME280;50592;52.958;-7.470;2023-01-09T01:08:38;97911.78;;;4.67;100.00
64253;BME280;50592;52.958;-7.470;2023-01-09T01:11:06;97921.91;;;4.70;100.00
64253;BME280;50592;52.958;-7.470;2023-01-09T01:13:33;97930.09;;;4.67;100.00
64253;BME280;50592;52.958;-7.470;2023-01-09T01:16:03;97934.19;;;4.69;100.00
64253;BME280;50592;52.958;-7.470;2023-01-09T01:18:39;97936.00;;;4.69;100.00
64253;BME280;50592;52.958;-7.470;2023-01-09T01:21:09;97938.59;;;4.69;100.00
64253;BME280;50592;52.958;-7.470;2023-01-09T01:23:36;97947.44;;;4.68;100.00
64253;BME280;50592;52.958;-7.470;2023-01-09T01:26:04;97949.91;;;4.69;100.00
64253;BME280;50592;52.958;-7.470;2023-01-09T01:28:30;97963.16;;;4.68;100.00
64253;BME280;50592;52.958;-7.470;2023-01-09T01:30:59;97963.00;;;4.69;100.00
64253;BME280;50592;52.958;-7.470;2023-01-09T01:33:26;97979.47;;;4.70;100.00
64253;BME280;50592;52.958;-7.470;2023-01-09T01:36:09;97979.97;;;4.74;100.00
64253;BME280;50592;52.958;-7.470;2023-01-09T01:38:35;97984.56;;;4.71;100.00
64253;BME280;50592;52.958;-7.470;2023-01-09T01:41:02;98004.97;;;4.76;100.00
64253;BME280;50592;52.958;-7.470;2023-01-09T01:43:58;98005.97;;;4.83;100.00
64253;BME280;50592;52.958;-7.470;2023-01-09T01:46:26;98013.66;;;4.85;100.00
64253;BME280;50592;52.958;-7.470;2023-01-09T01:49:02;98019.38;;;4.89;100.00
64253;BME280;50592;52.958;-7.470;2023-01-09T01:51:35;98020.81;;;4.91;100.00
64253;BME280;50592;52.958;-7.470;2023-01-09T01:54:07;98027.34;;;4.95;100.00
64253;BME280;50592;52.958;-7.470;2023-01-09T01:56:44;98034.25;;;4.96;100.00
64253;BME280;50592;52.958;-7.470;2023-01-09T01:59:23;98041.91;;;4.98;100.00
64253;BME280;50592;52.958;-7.470;2023-01-09T02:01:58;98054.19;;;4.97;100.00
64253;BME280;50592;52.958;-7.470;2023-01-09T02:04:26;98058.75;;;4.95;100.00
64253;BME280;50592;52.958;-7.470;2023-01-09T02:06:55;98069.06;;;4.97;100.00
64253;BME280;50592;52.958;-7.470;2023-01-09T02:09:22;98078.75;;;4.96;100.00
64253;BME280;50592;52.958;-7.470;2023-01-09T02:11:56;98081.66;;;5.02;100.00
64253;BME280;50592;52.958;-7.470;2023-01-09T02:14:27;98098.34;;;5.01;100.00
64253;BME280;50592;52.958;-7.470;2023-01-09T02:17:12;98090.50;;;5.01;100.00
64253;BME280;50592;52.958;-7.470;2023-01-09T02:31:15;98152.84;;;4.97;100.00
64253;BME280;50592;52.958;-7.470;2023-01-09T02:36:29;98161.03;;;5.02;100.00
64253;BME280;50592;52.958;-7.470;2023-01-09T02:39:25;98168.88;;;5.02;100.00
64253;BME280;50592;52.958;-7.470;2023-01-09T02:44:34;98177.72;;;5.01;100.00
64253;BME280;50592;52.958;-7.470;2023-01-09T03:03:55;98244.16;;;5.00;100.00
64253;BME280;50592;52.958;-7.470;2023-01-09T03:06:38;98243.50;;;4.98;100.00
64253;BME280;50592;52.958;-7.470;2023-01-09T03:09:19;98241.06;;;4.96;100.00
64253;BME280;50592;52.958;-7.470;2023-01-09T03:11:56;98248.41;;;4.93;100.00
64253;BME280;50592;52.958;-7.470;2023-01-09T03:14:25;98253.31;;;4.88;100.00
64253;BME280;50592;52.958;-7.470;2023-01-09T03:16:57;98268.06;;;4.89;100.00
64253;BME280;50592;52.958;-7.470;2023-01-09T03:19:28;98263.47;;;4.82;100.00
64253;BME280;50592;52.958;-7.470;2023-01-09T03:21:55;98273.44;;;4.79;100.00
64253;BME280;50592;52.958;-7.470;2023-01-09T03:24:22;98266.06;;;4.74;100.00
64253;BME280;50592;52.958;-7.470;2023-01-09T03:26:49;98264.56;;;4.71;100.00
64253;BME280;50592;52.958;-7.470;2023-01-09T03:29:15;98274.41;;;4.69;100.00
64253;BME280;50592;52.958;-7.470;2023-01-09T03:31:45;98272.75;;;4.68;100.00
64253;BME280;50592;52.958;-7.470;2023-01-09T03:34:11;98285.81;;;4.68;100.00
64253;BME280;50592;52.958;-7.470;2023-01-09T03:36:40;98297.13;;;4.69;100.00
64253;BME280;50592;52.958;-7.470;2023-01-09T03:39:06;98301.19;;;4.63;100.00
64253;BME280;50592;52.958;-7.470;2023-01-09T03:41:40;98313.47;;;4.63;100.00
64253;BME280;50592;52.958;-7.470;2023-01-09T03:44:29;98313.63;;;4.61;100.00
64253;BME280;50592;52.958;-7.470;2023-01-09T03:46:55;98333.25;;;4.57;100.00
64253;BME280;50592;52.958;-7.470;2023-01-09T03:49:23;98338.63;;;4.55;100.00
64253;BME280;50592;52.958;-7.470;2023-01-09T03:51:50;98364.94;;;4.54;100.00
64253;BME280;50592;52.958;-7.470;2023-01-09T03:54:16;98363.44;;;4.51;100.00
64253;BME280;50592;52.958;-7.470;2023-01-09T03:56:47;98371.28;;;4.51;100.00
64253;BME280;50592;52.958;-7.470;2023-01-09T03:59:13;98373.72;;;4.44;100.00
64253;BME280;50592;52.958;-7.470;2023-01-09T04:01:39;98370.28;;;4.44;100.00
64253;BME280;50592;52.958;-7.470;2023-01-09T04:04:05;98378.44;;;4.41;100.00
64253;BME280;50592;52.958;-7.470;2023-01-09T04:06:31;98374.34;;;4.38;100.00
64253;BME280;50592;52.958;-7.470;2023-01-09T04:08:56;98375.31;;;4.37;100.00
64253;BME280;50592;52.958;-7.470;2023-01-09T04:11:22;98380.19;;;4.32;100.00
64253;BME280;50592;52.958;-7.470;2023-01-09T04:13:48;98390.97;;;4.29;100.00
64253;BME280;50592;52.958;-7.470;2023-01-09T04:16:14;98393.88;;;4.26;100.00
64253;BME280;50592;52.958;-7.470;2023-01-09T04:18:39;98412.81;;;4.19;100.00
64253;BME280;50592;52.958;-7.470;2023-01-09T04:21:05;98420.97;;;4.16;100.00
64253;BME280;50592;52.958;-7.470;2023-01-09T04:23:31;98432.25;;;4.17;100.00
64253;BME280;50592;52.958;-7.470;2023-01-09T04:25:57;98433.06;;;4.17;100.00
64253;BME280;50592;52.958;-7.470;2023-01-09T04:28:22;98436.34;;;4.19;100.00
64253;BME280;50592;52.958;-7.470;2023-01-09T04:30:48;98442.72;;;4.17;100.00
64253;BME280;50592;52.958;-7.470;2023-01-09T04:33:14;98451.06;;;4.20;100.00
64253;BME280;50592;52.958;-7.470;2023-01-09T04:35:40;98458.41;;;4.17;100.00
64253;BME280;50592;52.958;-7.470;2023-01-09T04:38:06;98467.88;;;4.18;100.00
64253;BME280;50592;52.958;-7.470;2023-01-09T04:40:32;98461.66;;;4.19;100.00
64253;BME280;50592;52.958;-7.470;2023-01-09T04:42:58;98461.81;;;4.17;100.00
64253;BME280;50592;52.958;-7.470;2023-01-09T04:45:23;98469.66;;;4.17;100.00
64253;BME280;50592;52.958;-7.470;2023-01-09T04:47:49;98475.03;;;4.16;100.00
64253;BME280;50592;52.958;-7.470;2023-01-09T04:50:15;98482.25;;;4.14;100.00
64253;BME280;50592;52.958;-7.470;2023-01-09T04:52:41;98483.03;;;4.14;100.00
64253;BME280;50592;52.958;-7.470;2023-01-09T04:55:07;98487.47;;;4.14;100.00
64253;BME280;50592;52.958;-7.470;2023-01-09T04:57:38;98495.66;;;4.19;100.00
64253;BME280;50592;52.958;-7.470;2023-01-09T05:00:08;98496.19;;;4.22;100.00
64253;BME280;50592;52.958;-7.470;2023-01-09T05:02:37;98494.03;;;4.18;100.00
64253;BME280;50592;52.958;-7.470;2023-01-09T05:05:04;98500.25;;;4.17;100.00
64253;BME280;50592;52.958;-7.470;2023-01-09T05:07:35;98498.28;;;4.19;100.00
64253;BME280;50592;52.958;-7.470;2023-01-09T05:10:05;98509.03;;;4.16;100.00
64253;BME280;50592;52.958;-7.470;2023-01-09T05:12:33;98511.00;;;4.14;100.00
64253;BME280;50592;52.958;-7.470;2023-01-09T05:15:03;98517.19;;;4.13;100.00
64253;BME280;50592;52.958;-7.470;2023-01-09T05:17:29;98522.06;;;4.07;100.00
64253;BME280;50592;52.958;-7.470;2023-01-09T05:19:57;98523.84;;;4.07;100.00
64253;BME280;50592;52.958;-7.470;2023-01-09T05:22:30;98530.34;;;4.03;100.00
64253;BME280;50592;52.958;-7.470;2023-01-09T05:24:56;98535.44;;;4.04;100.00
64253;BME280;50592;52.958;-7.470;2023-01-09T05:27:21;98543.94;;;4.06;100.00
64253;BME280;50592;52.958;-7.470;2023-01-09T05:29:47;98541.31;;;4.06;100.00
64253;BME280;50592;52.958;-7.470;2023-01-09T05:32:13;98552.47;;;4.08;100.00
64253;BME280;50592;52.958;-7.470;2023-01-09T05:34:40;98556.84;;;4.08;100.00
64253;BME280;50592;52.958;-7.470;2023-01-09T05:37:06;98551.94;;;4.05;100.00
64253;BME280;50592;52.958;-7.470;2023-01-09T05:39:32;98558.97;;;4.04;100.00
64253;BME280;50592;52.958;-7.470;2023-01-09T05:42:08;98568.16;;;4.08;100.00
64253;BME280;50592;52.958;-7.470;2023-01-09T05:44:35;98571.06;;;4.05;100.00
64253;BME280;50592;52.958;-7.470;2023-01-09T05:47:01;98578.38;;;4.02;100.00
64253;BME280;50592;52.958;-7.470;2023-01-09T05:49:28;98582.78;;;4.01;100.00
64253;BME280;50592;52.958;-7.470;2023-01-09T05:51:54;98575.75;;;4.02;100.00
64253;BME280;50592;52.958;-7.470;2023-01-09T05:54:23;98586.59;;;4.07;100.00
64253;BME280;50592;52.958;-7.470;2023-01-09T05:56:49;98595.28;;;4.07;100.00
64253;BME280;50592;52.958;-7.470;2023-01-09T05:59:15;98598.03;;;4.06;100.00
64253;BME280;50592;52.958;-7.470;2023-01-09T06:01:44;98613.56;;;4.07;100.00
64253;BME280;50592;52.958;-7.470;2023-01-09T06:04:10;98614.22;;;4.09;100.00
64253;BME280;50592;52.958;-7.470;2023-01-09T06:06:35;98619.84;;;4.15;100.00
64253;BME280;50592;52.958;-7.470;2023-01-09T06:09:02;98637.56;;;4.21;100.00
64253;BME280;50592;52.958;-7.470;2023-01-09T06:11:28;98638.91;;;4.25;100.00
64253;BME280;50592;52.958;-7.470;2023-01-09T06:13:54;98643.31;;;4.25;100.00
64253;BME280;50592;52.958;-7.470;2023-01-09T06:16:20;98644.66;;;4.29;100.00
64253;BME280;50592;52.958;-7.470;2023-01-09T06:18:46;98648.09;;;4.29;100.00
64253;BME280;50592;52.958;-7.470;2023-01-09T06:21:12;98649.75;;;4.30;100.00
64253;BME280;50592;52.958;-7.470;2023-01-09T06:23:38;98652.34;;;4.30;100.00
64253;BME280;50592;52.958;-7.470;2023-01-09T06:26:03;98652.34;;;4.30;100.00
64253;BME280;50592;52.958;-7.470;2023-01-09T06:28:29;98655.13;;;4.29;100.00
64253;BME280;50592;52.958;-7.470;2023-01-09T06:30:55;98670.97;;;4.27;100.00
64253;BME280;50592;52.958;-7.470;2023-01-09T06:33:21;98675.38;;;4.27;100.00
64253;BME280;50592;52.958;-7.470;2023-01-09T06:35:48;98681.41;;;4.27;100.00
64253;BME280;50592;52.958;-7.470;2023-01-09T06:38:14;98686.41;;;4.20;100.00
64253;BME280;50592;52.958;-7.470;2023-01-09T06:40:40;98678.72;;;4.19;100.00
64253;BME280;50592;52.958;-7.470;2023-01-09T06:43:06;98688.81;;;4.14;100.00
64253;BME280;50592;52.958;-7.470;2023-01-09T06:45:33;98693.50;;;4.10;100.00
64253;BME280;50592;52.958;-7.470;2023-01-09T06:47:58;98699.72;;;4.09;100.00
64253;BME280;50592;52.958;-7.470;2023-01-09T06:50:24;98701.63;;;4.07;100.00
64253;BME280;50592;52.958;-7.470;2023-01-09T06:52:50;98712.81;;;3.99;100.00
64253;BME280;50592;52.958;-7.470;2023-01-09T06:55:16;98720.25;;;3.94;100.00
64253;BME280;50592;52.958;-7.470;2023-01-09T06:57:42;98726.22;;;3.86;100.00
64253;BME280;50592;52.958;-7.470;2023-01-09T07:00:08;98727.47;;;3.82;100.00
64253;BME280;50592;52.958;-7.470;2023-01-09T07:02:34;98722.97;;;3.74;100.00
64253;BME280;50592;52.958;-7.470;2023-01-09T07:05:00;98734.38;;;3.73;100.00
64253;BME280;50592;52.958;-7.470;2023-01-09T07:07:27;98745.66;;;3.74;100.00
64253;BME280;50592;52.958;-7.470;2023-01-09T07:09:53;98752.81;;;3.71;100.00
64253;BME280;50592;52.958;-7.470;2023-01-09T07:12:19;98756.53;;;3.69;100.00
64253;BME280;50592;52.958;-7.470;2023-01-09T07:14:45;98766.00;;;3.70;100.00
64253;BME280;50592;52.958;-7.470;2023-01-09T07:17:11;98761.75;;;3.69;100.00
64253;BME280;50592;52.958;-7.470;2023-01-09T07:19:38;98771.66;;;3.65;100.00
64253;BME280;50592;52.958;-7.470;2023-01-09T07:22:03;98773.44;;;3.65;100.00
64253;BME280;50592;52.958;-7.470;2023-01-09T07:24:29;98780.47;;;3.64;100.00
64253;BME280;50592;52.958;-7.470;2023-01-09T07:26:55;98782.25;;;3.64;100.00
64253;BME280;50592;52.958;-7.470;2023-01-09T07:29:21;98785.00;;;3.62;100.00
64253;BME280;50592;52.958;-7.470;2023-01-09T07:31:46;98789.03;;;3.56;100.00
64253;BME280;50592;52.958;-7.470;2023-01-09T07:34:12;98795.19;;;3.55;100.00
64253;BME280;50592;52.958;-7.470;2023-01-09T07:36:38;98808.38;;;3.54;100.00
64253;BME280;50592;52.958;-7.470;2023-01-09T07:39:04;98804.00;;;3.54;100.00
64253;BME280;50592;52.958;-7.470;2023-01-09T07:41:30;98805.78;;;3.54;100.00
64253;BME280;50592;52.958;-7.470;2023-01-09T07:43:56;98807.44;;;3.55;100.00
64253;BME280;50592;52.958;-7.470;2023-01-09T07:46:21;98815.28;;;3.55;100.00
64253;BME280;50592;52.958;-7.470;2023-01-09T07:48:47;98826.41;;;3.57;100.00
64253;BME280;50592;52.958;-7.470;2023-01-09T07:51:13;98836.44;;;3.62;100.00
64253;BME280;50592;52.958;-7.470;2023-01-09T07:53:39;98837.41;;;3.60;100.00
64253;BME280;50592;52.958;-7.470;2023-01-09T07:56:05;98839.88;;;3.62;100.00
64253;BME280;50592;52.958;-7.470;2023-01-09T07:58:30;98834.50;;;3.64;100.00
64253;BME280;50592;52.958;-7.470;2023-01-09T08:00:56;98844.81;;;3.65;100.00
64253;BME280;50592;52.958;-7.470;2023-01-09T08:03:22;98848.28;;;3.66;100.00
64253;BME280;50592;52.958;-7.470;2023-01-09T08:05:48;98851.44;;;3.69;100.00
64253;BME280;50592;52.958;-7.470;2023-01-09T08:08:14;98861.91;;;3.69;100.00
64253;BME280;50592;52.958;-7.470;2023-01-09T08:10:40;98869.75;;;3.69;100.00
64253;BME280;50592;52.958;-7.470;2023-01-09T08:13:06;98876.03;;;3.67;100.00
64253;BME280;50592;52.958;-7.470;2023-01-09T08:15:31;98882.94;;;3.68;100.00
64253;BME280;50592;52.958;-7.470;2023-01-09T08:17:58;98893.53;;;3.66;100.00
64253;BME280;50592;52.958;-7.470;2023-01-09T08:20:23;98903.00;;;3.67;100.00
64253;BME280;50592;52.958;-7.470;2023-01-09T08:22:49;98893.41;;;3.68;100.00
64253;BME280;50592;52.958;-7.470;2023-01-09T08:25:17;98911.41;;;3.71;100.00
64253;BME280;50592;52.958;-7.470;2023-01-09T08:27:43;98911.94;;;3.75;100.00
64253;BME280;50592;52.958;-7.470;2023-01-09T08:30:09;98910.16;;;3.75;100.00
64253;BME280;50592;52.958;-7.470;2023-01-09T08:32:35;98920.34;;;3.78;100.00
64253;BME280;50592;52.958;-7.470;2023-01-09T08:35:02;98919.50;;;3.78;100.00
64253;BME280;50592;52.958;-7.470;2023-01-09T08:37:28;98920.59;;;3.75;100.00
64253;BME280;50592;52.958;-7.470;2023-01-09T08:39:54;98937.66;;;3.79;100.00
64253;BME280;50592;52.958;-7.470;2023-01-09T08:42:21;98944.56;;;3.80;100.00
64253;BME280;50592;52.958;-7.470;2023-01-09T08:45:06;98946.19;;;3.81;100.00
64253;BME280;50592;52.958;-7.470;2023-01-09T08:47:51;98961.31;;;3.78;100.00
64253;BME280;50592;52.958;-7.470;2023-01-09T08:50:17;98966.28;;;3.81;100.00
64253;BME280;50592;52.958;-7.470;2023-01-09T08:52:42;98976.72;;;3.81;100.00
64253;BME280;50592;52.958;-7.470;2023-01-09T08:55:08;98968.75;;;3.82;100.00
64253;BME280;50592;52.958;-7.470;2023-01-09T08:57:34;98975.09;;;3.80;100.00
64253;BME280;50592;52.958;-7.470;2023-01-09T09:00:01;98982.66;;;3.83;100.00
64253;BME280;50592;52.958;-7.470;2023-01-09T09:02:26;98993.09;;;3.83;100.00
64253;BME280;50592;52.958;-7.470;2023-01-09T09:04:52;99005.06;;;3.85;100.00
64253;BME280;50592;52.958;-7.470;2023-01-09T09:07:19;99003.28;;;3.86;100.00
64253;BME280;50592;52.958;-7.470;2023-01-09T09:09:54;99006.31;;;3.91;100.00
64253;BME280;50592;52.958;-7.470;2023-01-09T09:12:21;99011.56;;;3.91;100.00
64253;BME280;50592;52.958;-7.470;2023-01-09T09:14:46;99018.97;;;3.96;100.00
64253;BME280;50592;52.958;-7.470;2023-01-09T09:17:31;99043.88;;;4.00;100.00
64253;BME280;50592;52.958;-7.470;2023-01-09T09:19:58;99041.00;;;4.03;100.00
64253;BME280;50592;52.958;-7.470;2023-01-09T09:22:25;99050.38;;;4.06;100.00
64253;BME280;50592;52.958;-7.470;2023-01-09T09:24:51;99052.84;;;4.07;100.00
64253;BME280;50592;52.958;-7.470;2023-01-09T09:27:17;99057.09;;;4.08;100.00
64253;BME280;50592;52.958;-7.470;2023-01-09T09:29:43;99064.53;;;4.13;100.00
64253;BME280;50592;52.958;-7.470;2023-01-09T09:32:10;99068.66;;;4.16;100.00
64253;BME280;50592;52.958;-7.470;2023-01-09T09:34:35;99069.06;;;4.21;100.00
64253;BME280;50592;52.958;-7.470;2023-01-09T09:37:01;99073.63;;;4.29;100.00
64253;BME280;50592;52.958;-7.470;2023-01-09T09:39:27;99073.91;;;4.36;100.00
64253;BME280;50592;52.958;-7.470;2023-01-09T09:45:05;99101.72;;;4.46;100.00
64253;BME280;50592;52.958;-7.470;2023-01-09T09:50:33;99095.38;;;4.39;100.00
64253;BME280;50592;52.958;-7.470;2023-01-09T09:55:35;99108.88;;;4.25;100.00
64253;BME280;50592;52.958;-7.470;2023-01-09T09:58:23;99123.59;;;4.26;100.00
64253;BME280;50592;52.958;-7.470;2023-01-09T10:00:53;99129.94;;;4.23;100.00
64253;BME280;50592;52.958;-7.470;2023-01-09T10:03:42;99133.13;;;4.27;100.00
64253;BME280;50592;52.958;-7.470;2023-01-09T10:06:14;99129.53;;;4.28;100.00
64253;BME280;50592;52.958;-7.470;2023-01-09T10:09:03;99135.72;;;4.27;100.00
64253;BME280;50592;52.958;-7.470;2023-01-09T10:14:18;99129.78;;;4.15;100.00
64253;BME280;50592;52.958;-7.470;2023-01-09T10:23:09;99147.13;;;4.26;100.00
64253;BME280;50592;52.958;-7.470;2023-01-09T10:25:55;99137.09;;;4.31;100.00
64253;BME280;50592;52.958;-7.470;2023-01-09T10:31:21;99147.00;;;4.37;100.00
64253;BME280;50592;52.958;-7.470;2023-01-09T10:34:11;99156.38;;;4.40;100.00
64253;BME280;50592;52.958;-7.470;2023-01-09T10:37:06;99163.81;;;4.44;100.00
64253;BME280;50592;52.958;-7.470;2023-01-09T10:42:11;99170.03;;;4.53;100.00
64253;BME280;50592;52.958;-7.470;2023-01-09T10:47:37;99164.09;;;4.51;100.00
64253;BME280;50592;52.958;-7.470;2023-01-09T10:50:25;99172.78;;;4.52;100.00
64253;BME280;50592;52.958;-7.470;2023-01-09T10:52:54;99181.34;;;4.54;100.00
64253;BME280;50592;52.958;-7.470;2023-01-09T10:55:34;99189.59;;;4.59;100.00
64253;BME280;50592;52.958;-7.470;2023-01-09T10:58:12;99184.06;;;4.62;100.00
64253;BME280;50592;52.958;-7.470;2023-01-09T11:00:39;99184.78;;;4.64;100.00
64253;BME280;50592;52.958;-7.470;2023-01-09T11:03:10;99197.16;;;4.72;100.00
64253;BME280;50592;52.958;-7.470;2023-01-09T11:05:36;99196.06;;;4.75;100.00
64253;BME280;50592;52.958;-7.470;2023-01-09T11:13:17;99207.38;;;4.95;100.00
64253;BME280;50592;52.958;-7.470;2023-01-09T11:15:44;99207.09;;;4.98;100.00
64253;BME280;50592;52.958;-7.470;2023-01-09T11:18:21;99218.25;;;5.10;100.00
64253;BME280;50592;52.958;-7.470;2023-01-09T11:20:49;99219.91;;;5.11;100.00
64253;BME280;50592;52.958;-7.470;2023-01-09T11:23:32;99231.47;;;5.18;100.00
64253;BME280;50592;52.958;-7.470;2023-01-09T11:26:00;99219.75;;;5.22;100.00
64253;BME280;50592;52.958;-7.470;2023-01-09T11:28:27;99233.41;;;5.26;100.00
64253;BME280;50592;52.958;-7.470;2023-01-09T11:31:00;99223.75;;;5.37;100.00
64253;BME280;50592;52.958;-7.470;2023-01-09T11:33:33;99227.31;;;5.45;100.00
64253;BME280;50592;52.958;-7.470;2023-01-09T11:36:13;99214.47;;;5.52;100.00
64253;BME280;50592;52.958;-7.470;2023-01-09T11:38:52;99216.81;;;5.55;100.00
64253;BME280;50592;52.958;-7.470;2023-01-09T11:41:21;99220.09;;;5.57;100.00
64253;BME280;50592;52.958;-7.470;2023-01-09T11:43:54;99217.06;;;5.62;100.00
64253;BME280;50592;52.958;-7.470;2023-01-09T11:49:00;99210.41;;;5.68;100.00
64253;BME280;50592;52.958;-7.470;2023-01-09T11:51:32;99231.78;;;5.73;100.00
64253;BME280;50592;52.958;-7.470;2023-01-09T11:56:39;99232.16;;;5.78;100.00
64253;BME280;50592;52.958;-7.470;2023-01-09T11:59:17;99238.50;;;5.86;100.00
64253;BME280;50592;52.958;-7.470;2023-01-09T12:13:30;99266.63;;;6.03;100.00
64253;BME280;50592;52.958;-7.470;2023-01-09T12:22:07;99286.34;;;6.07;100.00
64253;BME280;50592;52.958;-7.470;2023-01-09T12:24:53;99291.47;;;6.09;100.00
64253;BME280;50592;52.958;-7.470;2023-01-09T12:30:55;99303.59;;;6.10;100.00
64253;BME280;50592;52.958;-7.470;2023-01-09T12:33:47;99300.84;;;6.12;100.00
64253;BME280;50592;52.958;-7.470;2023-01-09T12:41:37;99303.16;;;6.15;100.00
64253;BME280;50592;52.958;-7.470;2023-01-09T12:47:18;99311.16;;;6.23;100.00
64253;BME280;50592;52.958;-7.470;2023-01-09T12:53:22;99328.94;;;6.29;100.00
64253;BME280;50592;52.958;-7.470;2023-01-09T12:55:59;99324.78;;;6.37;100.00
64253;BME280;50592;52.958;-7.470;2023-01-09T12:58:29;99340.09;;;6.41;100.00
64253;BME280;50592;52.958;-7.470;2023-01-09T13:00:59;99351.03;;;6.37;100.00
64253;BME280;50592;52.958;-7.470;2023-01-09T13:03:41;99347.88;;;6.33;100.00
64253;BME280;50592;52.958;-7.470;2023-01-09T13:06:13;99362.91;;;6.31;100.00
64253;BME280;50592;52.958;-7.470;2023-01-09T13:08:45;99358.75;;;6.38;100.00
64253;BME280;50592;52.958;-7.470;2023-01-09T13:14:32;99359.69;;;6.47;100.00
64253;BME280;50592;52.958;-7.470;2023-01-09T13:17:02;99365.78;;;6.48;100.00
64253;BME280;50592;52.958;-7.470;2023-01-09T13:19:36;99359.53;;;6.49;100.00
64253;BME280;50592;52.958;-7.470;2023-01-09T13:22:05;99344.78;;;6.48;100.00
64253;BME280;50592;52.958;-7.470;2023-01-09T13:24:42;99350.72;;;6.50;100.00
64253;BME280;50592;52.958;-7.470;2023-01-09T13:27:16;99352.66;;;6.48;100.00
64253;BME280;50592;52.958;-7.470;2023-01-09T13:29:58;99346.28;;;6.50;100.00
64253;BME280;50592;52.958;-7.470;2023-01-09T13:32:51;99363.69;;;6.51;100.00
64253;BME280;50592;52.958;-7.470;2023-01-09T13:35:23;99358.59;;;6.50;100.00
64253;BME280;50592;52.958;-7.470;2023-01-09T13:37:51;99365.03;;;6.55;100.00
64253;BME280;50592;52.958;-7.470;2023-01-09T13:42:43;99357.84;;;6.57;100.00
64253;BME280;50592;52.958;-7.470;2023-01-09T13:45:38;99365.44;;;6.61;100.00
64253;BME280;50592;52.958;-7.470;2023-01-09T13:50:46;99357.84;;;6.57;100.00
64253;BME280;50592;52.958;-7.470;2023-01-09T13:58:55;99380.09;;;6.53;100.00
64253;BME280;50592;52.958;-7.470;2023-01-09T14:06:40;99388.09;;;6.62;100.00
64253;BME280;50592;52.958;-7.470;2023-01-09T14:09:19;99372.88;;;6.65;100.00
64253;BME280;50592;52.958;-7.470;2023-01-09T14:11:47;99387.66;;;6.66;100.00
64253;BME280;50592;52.958;-7.470;2023-01-09T14:14:24;99388.22;;;6.70;100.00
64253;BME280;50592;52.958;-7.470;2023-01-09T14:16:54;99399.81;;;6.67;100.00
64253;BME280;50592;52.958;-7.470;2023-01-09T14:19:32;99405.59;;;6.71;100.00
64253;BME280;50592;52.958;-7.470;2023-01-09T14:22:00;99412.78;;;6.69;100.00
64253;BME280;50592;52.958;-7.470;2023-01-09T14:24:54;99417.25;;;6.68;100.00
64253;BME280;50592;52.958;-7.470;2023-01-09T14:33:23;99427.88;;;6.67;100.00
64253;BME280;50592;52.958;-7.470;2023-01-09T14:36:15;99430.66;;;6.65;100.00
64253;BME280;50592;52.958;-7.470;2023-01-09T14:38:56;99425.56;;;6.64;100.00
64253;BME280;50592;52.958;-7.470;2023-01-09T14:41:36;99449.47;;;6.61;100.00
64253;BME280;50592;52.958;-7.470;2023-01-09T14:47:17;99429.03;;;6.54;100.00
64253;BME280;50592;52.958;-7.470;2023-01-09T14:49:59;99434.44;;;6.53;100.00
64253;BME280;50592;52.958;-7.470;2023-01-09T14:52:33;99437.72;;;6.55;100.00
64253;BME280;50592;52.958;-7.470;2023-01-09T14:55:03;99429.03;;;6.54;100.00
64253;BME280;50592;52.958;-7.470;2023-01-09T14:57:32;99451.00;;;6.53;100.00
64253;BME280;50592;52.958;-7.470;2023-01-09T15:00:13;99452.81;;;6.53;100.00
64253;BME280;50592;52.958;-7.470;2023-01-09T15:02:40;99456.81;;;6.47;100.00
64253;BME280;50592;52.958;-7.470;2023-01-09T15:05:09;99456.69;;;6.49;100.00
64253;BME280;50592;52.958;-7.470;2023-01-09T15:07:43;99461.25;;;6.47;100.00
64253;BME280;50592;52.958;-7.470;2023-01-09T15:12:44;99480.31;;;6.39;100.00
64253;BME280;50592;52.958;-7.470;2023-01-09T15:15:11;99482.28;;;6.37;100.00
64253;BME280;50592;52.958;-7.470;2023-01-09T15:17:40;99491.09;;;6.36;100.00
64253;BME280;50592;52.958;-7.470;2023-01-09T15:20:16;99492.34;;;6.31;100.00